GCFV/FUE METAR and TAF weather

Enter ICAO airport designator
Station Type Date Time Source
GCFV METAR 2018/01/19 17:30 UTC NOAA

GCFV 191730Z 03018KT 9999 SCT038 19/12 Q1023


Station Type Date Time Source
GCFV Decoded METAR 2018/01/19 17:30 UTC NOAA

Fuerteventura / Aeropuerto, Spain (GCFV) 28-27N 013-52W 30M
Jan 19, 2018 - 12:30 PM EST / 2018.01.19 1730 UTC
Wind: from the NNE (030 degrees) at 21 MPH (18 KT):0
Visibility: greater than 7 mile(s):0
Sky conditions: partly cloudy
Temperature: 66 F (19 C)
Dew Point: 53 F (12 C)
Relative Humidity: 63%
Pressure (altimeter): 30.21 in. Hg (1023 hPa)
ob: GCFV 191730Z 03018KT 9999 SCT038 19/12 Q1023
cycle: 17

Station Type Date Time Source
GCFV TAF 2018/01/19 15:29 UTC NOAA

TAF GCFV 191400Z 1915/2015 03015KT 9999 SCT040 TX20/2014Z TN16/2006Z PROB30
TEMPO 1916/2012 03015G25KT


Example: see airport list